sensor_id;sensor_type;location;lat;lon;timestamp;pressure;altitude;pressure_sealevel;temperature;humidity
18201;BME280;9226;47.858;9.594;2023-04-20T00:01:52;95041.16;;;6.09;79.13
18201;BME280;9226;47.858;9.594;2023-04-20T00:04:18;95026.28;;;6.08;79.08
18201;BME280;9226;47.858;9.594;2023-04-20T00:06:43;95028.81;;;5.97;79.37
18201;BME280;9226;47.858;9.594;2023-04-20T00:09:11;95022.72;;;6.09;79.11
18201;BME280;9226;47.858;9.594;2023-04-20T00:11:37;95026.09;;;5.98;79.39
18201;BME280;9226;47.858;9.594;2023-04-20T00:14:02;95020.16;;;5.95;79.26
18201;BME280;9226;47.858;9.594;2023-04-20T00:16:28;95024.63;;;6.07;79.14
18201;BME280;9226;47.858;9.594;2023-04-20T00:18:53;95013.66;;;6.01;79.70
18201;BME280;9226;47.858;9.594;2023-04-20T00:21:19;95014.91;;;5.82;79.90
18201;BME280;9226;47.858;9.594;2023-04-20T00:23:49;95004.41;;;5.82;80.35
18201;BME280;9226;47.858;9.594;2023-04-20T00:26:15;94996.91;;;5.76;80.96
18201;BME280;9226;47.858;9.594;2023-04-20T00:28:41;94997.66;;;5.65;81.96
18201;BME280;9226;47.858;9.594;2023-04-20T00:31:06;94997.25;;;5.58;82.43
18201;BME280;9226;47.858;9.594;2023-04-20T00:33:32;94994.81;;;5.55;82.61
18201;BME280;9226;47.858;9.594;2023-04-20T00:35:57;94992.81;;;5.72;81.50
18201;BME280;9226;47.858;9.594;2023-04-20T00:38:23;94997.25;;;5.58;82.43
18201;BME280;9226;47.858;9.594;2023-04-20T00:40:48;94989.75;;;5.52;82.79
18201;BME280;9226;47.858;9.594;2023-04-20T00:43:18;94988.28;;;5.48;83.09
18201;BME280;9226;47.858;9.594;2023-04-20T00:45:45;94987.84;;;5.54;82.43
18201;BME280;9226;47.858;9.594;2023-04-20T00:48:10;94980.19;;;5.38;83.44
18201;BME280;9226;47.858;9.594;2023-04-20T00:50:37;94981.56;;;5.44;82.90
18201;BME280;9226;47.858;9.594;2023-04-20T00:53:02;94978.06;;;5.56;82.12
18201;BME280;9226;47.858;9.594;2023-04-20T00:55:29;94970.16;;;5.43;82.28
18201;BME280;9226;47.858;9.594;2023-04-20T00:57:55;94968.41;;;5.44;81.75
18201;BME280;9226;47.858;9.594;2023-04-20T01:00:21;94967.53;;;5.43;82.89
18201;BME280;9226;47.858;9.594;2023-04-20T01:02:47;94973.25;;;5.63;81.93
18201;BME280;9226;47.858;9.594;2023-04-20T01:05:12;94976.09;;;5.60;82.64
18201;BME280;9226;47.858;9.594;2023-04-20T01:07:38;94969.75;;;5.62;82.66
18201;BME280;9226;47.858;9.594;2023-04-20T01:10:07;94969.84;;;5.61;83.17
18201;BME280;9226;47.858;9.594;2023-04-20T01:12:33;94963.34;;;5.67;82.99
18201;BME280;9226;47.858;9.594;2023-04-20T01:15:01;94954.94;;;5.61;82.58
18201;BME280;9226;47.858;9.594;2023-04-20T01:17:27;94952.72;;;5.55;83.57
18201;BME280;9226;47.858;9.594;2023-04-20T01:19:52;94955.34;;;5.68;82.96
18201;BME280;9226;47.858;9.594;2023-04-20T01:22:19;94941.34;;;5.68;83.15
18201;BME280;9226;47.858;9.594;2023-04-20T01:24:44;94952.59;;;5.70;83.19
18201;BME280;9226;47.858;9.594;2023-04-20T01:27:10;94950.06;;;5.68;83.83
18201;BME280;9226;47.858;9.594;2023-04-20T01:29:36;94944.19;;;5.65;83.75
18201;BME280;9226;47.858;9.594;2023-04-20T01:32:01;94937.53;;;5.72;83.53
18201;BME280;9226;47.858;9.594;2023-04-20T01:34:27;94932.59;;;5.67;83.63
18201;BME280;9226;47.858;9.594;2023-04-20T01:36:52;94927.66;;;5.50;83.89
18201;BME280;9226;47.858;9.594;2023-04-20T01:39:18;94925.44;;;5.43;83.17
18201;BME280;9226;47.858;9.594;2023-04-20T01:41:43;94923.56;;;5.33;83.46
18201;BME280;9226;47.858;9.594;2023-04-20T01:44:09;94915.44;;;5.36;83.96
18201;BME280;9226;47.858;9.594;2023-04-20T01:46:38;94920.09;;;5.45;83.51
18201;BME280;9226;47.858;9.594;2023-04-20T01:49:04;94913.25;;;5.30;84.33
18201;BME280;9226;47.858;9.594;2023-04-20T01:51:30;94904.94;;;5.36;84.17
18201;BME280;9226;47.858;9.594;2023-04-20T01:53:58;94910.50;;;5.18;84.85
18201;BME280;9226;47.858;9.594;2023-04-20T01:56:24;94904.63;;;5.15;84.68
18201;BME280;9226;47.858;9.594;2023-04-20T01:58:49;94904.09;;;5.10;83.99
18201;BME280;9226;47.858;9.594;2023-04-20T02:01:15;94892.84;;;4.95;84.33
18201;BME280;9226;47.858;9.594;2023-04-20T02:03:40;94892.22;;;5.04;85.24
18201;BME280;9226;47.858;9.594;2023-04-20T02:06:06;94904.31;;;5.19;85.26
18201;BME280;9226;47.858;9.594;2023-04-20T02:08:32;94906.63;;;5.24;85.51
18201;BME280;9226;47.858;9.594;2023-04-20T02:10:57;94899.97;;;5.31;85.43
18201;BME280;9226;47.858;9.594;2023-04-20T02:13:23;94897.88;;;5.49;83.99
18201;BME280;9226;47.858;9.594;2023-04-20T02:15:48;94892.84;;;5.46;83.80
18201;BME280;9226;47.858;9.594;2023-04-20T02:18:14;94893.06;;;5.30;83.95
18201;BME280;9226;47.858;9.594;2023-04-20T02:20:41;94891.13;;;5.45;83.69
18201;BME280;9226;47.858;9.594;2023-04-20T02:23:06;94879.69;;;5.46;83.45
18201;BME280;9226;47.858;9.594;2023-04-20T02:25:32;94881.88;;;5.52;83.51
18201;BME280;9226;47.858;9.594;2023-04-20T02:27:57;94877.47;;;5.40;84.10
18201;BME280;9226;47.858;9.594;2023-04-20T02:30:22;94874.75;;;5.29;84.38
18201;BME280;9226;47.858;9.594;2023-04-20T02:32:48;94867.06;;;5.25;84.53
18201;BME280;9226;47.858;9.594;2023-04-20T02:35:13;94870.97;;;5.46;84.07
18201;BME280;9226;47.858;9.594;2023-04-20T02:37:38;94878.28;;;5.53;83.99
18201;BME280;9226;47.858;9.594;2023-04-20T02:40:05;94876.63;;;5.52;84.37
18201;BME280;9226;47.858;9.594;2023-04-20T02:42:31;94864.63;;;5.48;84.00
18201;BME280;9226;47.858;9.594;2023-04-20T02:44:56;94862.16;;;5.58;83.73
18201;BME280;9226;47.858;9.594;2023-04-20T02:47:22;94860.00;;;5.39;84.90
18201;BME280;9226;47.858;9.594;2023-04-20T02:49:47;94850.13;;;5.30;84.98
18201;BME280;9226;47.858;9.594;2023-04-20T02:52:13;94846.22;;;5.35;84.84
18201;BME280;9226;47.858;9.594;2023-04-20T02:54:38;94852.00;;;5.40;84.79
18201;BME280;9226;47.858;9.594;2023-04-20T02:57:04;94841.91;;;5.34;84.79
18201;BME280;9226;47.858;9.594;2023-04-20T02:59:29;94845.38;;;5.48;84.24
18201;BME280;9226;47.858;9.594;2023-04-20T03:01:55;94838.81;;;5.53;84.08
18201;BME280;9226;47.858;9.594;2023-04-20T03:04:20;94845.16;;;5.51;84.55
18201;BME280;9226;47.858;9.594;2023-04-20T03:06:46;94837.22;;;5.64;83.65
18201;BME280;9226;47.858;9.594;2023-04-20T03:09:14;94835.25;;;5.54;84.30
18201;BME280;9226;47.858;9.594;2023-04-20T03:11:40;94840.94;;;5.48;84.36
18201;BME280;9226;47.858;9.594;2023-04-20T03:14:05;94827.28;;;5.43;84.34
18201;BME280;9226;47.858;9.594;2023-04-20T03:16:31;94824.88;;;5.40;84.51
18201;BME280;9226;47.858;9.594;2023-04-20T03:18:56;94829.28;;;5.39;84.32
18201;BME280;9226;47.858;9.594;2023-04-20T03:21:21;94835.81;;;5.34;84.25
18201;BME280;9226;47.858;9.594;2023-04-20T03:23:47;94827.50;;;5.40;84.50
18201;BME280;9226;47.858;9.594;2023-04-20T03:26:13;94832.13;;;5.36;84.59
18201;BME280;9226;47.858;9.594;2023-04-20T03:28:40;94823.94;;;5.41;84.64
18201;BME280;9226;47.858;9.594;2023-04-20T03:31:05;94826.78;;;5.38;84.74
18201;BME280;9226;47.858;9.594;2023-04-20T03:33:31;94824.50;;;5.20;85.39
18201;BME280;9226;47.858;9.594;2023-04-20T03:35:56;94820.56;;;5.26;85.10
18201;BME280;9226;47.858;9.594;2023-04-20T03:38:21;94813.00;;;5.21;85.17
18201;BME280;9226;47.858;9.594;2023-04-20T03:40:47;94811.97;;;5.11;85.77
18201;BME280;9226;47.858;9.594;2023-04-20T03:43:12;94813.13;;;5.07;86.43
18201;BME280;9226;47.858;9.594;2023-04-20T03:45:37;94806.41;;;5.16;85.69
18201;BME280;9226;47.858;9.594;2023-04-20T03:48:03;94803.13;;;5.12;86.09
18201;BME280;9226;47.858;9.594;2023-04-20T03:50:29;94798.44;;;5.04;86.29
18201;BME280;9226;47.858;9.594;2023-04-20T03:52:54;94789.56;;;5.05;86.27
18201;BME280;9226;47.858;9.594;2023-04-20T03:55:20;94792.91;;;5.07;86.19
18201;BME280;9226;47.858;9.594;2023-04-20T03:57:45;94794.94;;;5.04;86.80
18201;BME280;9226;47.858;9.594;2023-04-20T04:00:11;94794.81;;;5.18;86.03
18201;BME280;9226;47.858;9.594;2023-04-20T04:02:37;94787.44;;;5.23;85.38
18201;BME280;9226;47.858;9.594;2023-04-20T04:05:02;94790.31;;;5.20;85.49
18201;BME280;9226;47.858;9.594;2023-04-20T04:07:27;94786.84;;;5.07;86.07
18201;BME280;9226;47.858;9.594;2023-04-20T04:09:53;94777.25;;;5.06;86.21
18201;BME280;9226;47.858;9.594;2023-04-20T04:12:18;94782.84;;;5.14;85.95
18201;BME280;9226;47.858;9.594;2023-04-20T04:14:44;94780.13;;;5.03;85.81
18201;BME280;9226;47.858;9.594;2023-04-20T04:17:09;94784.53;;;5.02;85.89
18201;BME280;9226;47.858;9.594;2023-04-20T04:19:35;94774.88;;;5.03;85.89
18201;BME280;9226;47.858;9.594;2023-04-20T04:22:00;94780.63;;;5.08;85.68
18201;BME280;9226;47.858;9.594;2023-04-20T04:24:25;94774.44;;;4.96;85.92
18201;BME280;9226;47.858;9.594;2023-04-20T04:26:52;94780.13;;;5.03;85.54
18201;BME280;9226;47.858;9.594;2023-04-20T04:29:22;94786.03;;;4.94;85.53
18201;BME280;9226;47.858;9.594;2023-04-20T04:31:50;94775.50;;;4.94;85.81
18201;BME280;9226;47.858;9.594;2023-04-20T04:34:15;94774.75;;;4.92;85.71
18201;BME280;9226;47.858;9.594;2023-04-20T04:36:42;94778.66;;;4.99;85.91
18201;BME280;9226;47.858;9.594;2023-04-20T04:39:08;94782.53;;;4.93;85.56
18201;BME280;9226;47.858;9.594;2023-04-20T04:41:33;94772.78;;;4.95;85.89
18201;BME280;9226;47.858;9.594;2023-04-20T04:43:59;94776.13;;;4.97;85.70
18201;BME280;9226;47.858;9.594;2023-04-20T04:46:25;94781.16;;;5.00;85.49
18201;BME280;9226;47.858;9.594;2023-04-20T04:48:51;94781.81;;;4.91;85.47
18201;BME280;9226;47.858;9.594;2023-04-20T04:51:17;94789.13;;;5.24;84.56
18201;BME280;9226;47.858;9.594;2023-04-20T04:53:42;94779.63;;;5.35;84.12
18201;BME280;9226;47.858;9.594;2023-04-20T04:56:10;94780.91;;;5.29;84.04
18201;BME280;9226;47.858;9.594;2023-04-20T04:58:37;94779.03;;;5.18;84.19
18201;BME280;9226;47.858;9.594;2023-04-20T05:01:02;94787.66;;;5.20;84.05
18201;BME280;9226;47.858;9.594;2023-04-20T05:03:28;94776.09;;;5.10;84.22
18201;BME280;9226;47.858;9.594;2023-04-20T05:05:53;94772.53;;;5.11;84.01
18201;BME280;9226;47.858;9.594;2023-04-20T05:08:19;94780.00;;;5.17;83.86
18201;BME280;9226;47.858;9.594;2023-04-20T05:10:45;94772.75;;;5.08;84.29
18201;BME280;9226;47.858;9.594;2023-04-20T05:13:10;94768.72;;;5.15;83.88
18201;BME280;9226;47.858;9.594;2023-04-20T05:15:36;94771.03;;;5.20;84.03
18201;BME280;9226;47.858;9.594;2023-04-20T05:18:01;94775.47;;;5.19;83.87
18201;BME280;9226;47.858;9.594;2023-04-20T05:20:27;94769.03;;;5.23;84.12
18201;BME280;9226;47.858;9.594;2023-04-20T05:22:53;94772.19;;;5.29;84.05
18201;BME280;9226;47.858;9.594;2023-04-20T05:25:18;94782.41;;;5.20;84.63
18201;BME280;9226;47.858;9.594;2023-04-20T05:27:44;94779.97;;;5.30;84.19
18201;BME280;9226;47.858;9.594;2023-04-20T05:30:09;94789.50;;;5.44;83.70
18201;BME280;9226;47.858;9.594;2023-04-20T05:32:35;94791.16;;;5.45;83.60
18201;BME280;9226;47.858;9.594;2023-04-20T05:35:00;94787.59;;;5.46;83.63
18201;BME280;9226;47.858;9.594;2023-04-20T05:37:25;94781.69;;;5.55;83.50
18201;BME280;9226;47.858;9.594;2023-04-20T05:39:51;94782.56;;;5.43;83.39
18201;BME280;9226;47.858;9.594;2023-04-20T05:42:17;94786.34;;;5.39;83.97
18201;BME280;9226;47.858;9.594;2023-04-20T05:44:42;94781.72;;;5.30;84.63
18201;BME280;9226;47.858;9.594;2023-04-20T05:47:08;94782.13;;;5.49;84.12
18201;BME280;9226;47.858;9.594;2023-04-20T05:49:34;94780.88;;;5.42;84.34
18201;BME280;9226;47.858;9.594;2023-04-20T05:52:00;94777.50;;;5.40;84.34
18201;BME280;9226;47.858;9.594;2023-04-20T05:54:26;94777.66;;;5.25;85.14
18201;BME280;9226;47.858;9.594;2023-04-20T05:56:53;94768.94;;;5.25;85.30
18201;BME280;9226;47.858;9.594;2023-04-20T05:59:18;94779.25;;;5.15;85.75
18201;BME280;9226;47.858;9.594;2023-04-20T06:01:44;94780.78;;;5.31;85.60
18201;BME280;9226;47.858;9.594;2023-04-20T06:04:09;94787.84;;;5.30;86.46
18201;BME280;9226;47.858;9.594;2023-04-20T06:06:34;94778.66;;;5.36;85.54
18201;BME280;9226;47.858;9.594;2023-04-20T06:09:00;94784.25;;;5.44;84.86
18201;BME280;9226;47.858;9.594;2023-04-20T06:11:25;94783.78;;;5.50;84.88
18201;BME280;9226;47.858;9.594;2023-04-20T06:13:51;94781.47;;;5.58;84.41
18201;BME280;9226;47.858;9.594;2023-04-20T06:16:16;94781.91;;;5.52;84.69
18201;BME280;9226;47.858;9.594;2023-04-20T06:18:42;94783.16;;;5.47;85.59
18201;BME280;9226;47.858;9.594;2023-04-20T06:21:10;94775.00;;;5.38;84.72
18201;BME280;9226;47.858;9.594;2023-04-20T06:23:36;94774.94;;;5.51;84.75
18201;BME280;9226;47.858;9.594;2023-04-20T06:26:02;94774.63;;;5.56;84.12
18201;BME280;9226;47.858;9.594;2023-04-20T06:28:28;94778.44;;;5.39;85.94
18201;BME280;9226;47.858;9.594;2023-04-20T06:30:53;94777.06;;;5.46;86.57
18201;BME280;9226;47.858;9.594;2023-04-20T06:33:18;94782.84;;;5.51;86.00
18201;BME280;9226;47.858;9.594;2023-04-20T06:35:44;94773.56;;;5.58;86.07
18201;BME280;9226;47.858;9.594;2023-04-20T06:38:09;94773.25;;;5.50;85.13
18201;BME280;9226;47.858;9.594;2023-04-20T06:40:35;94769.25;;;5.57;84.83
18201;BME280;9226;47.858;9.594;2023-04-20T06:43:00;94775.00;;;5.62;84.80
18201;BME280;9226;47.858;9.594;2023-04-20T06:45:25;94775.34;;;5.58;85.66
18201;BME280;9226;47.858;9.594;2023-04-20T06:47:51;94778.03;;;5.69;85.72
18201;BME280;9226;47.858;9.594;2023-04-20T06:50:16;94779.59;;;5.72;84.08
18201;BME280;9226;47.858;9.594;2023-04-20T06:52:42;94777.03;;;5.59;84.51
18201;BME280;9226;47.858;9.594;2023-04-20T06:55:07;94773.91;;;5.78;84.74
18201;BME280;9226;47.858;9.594;2023-04-20T06:57:33;94784.03;;;5.71;83.69
18201;BME280;9226;47.858;9.594;2023-04-20T06:59:59;94779.66;;;5.83;84.51
18201;BME280;9226;47.858;9.594;2023-04-20T07:02:25;94773.22;;;5.87;84.71
18201;BME280;9226;47.858;9.594;2023-04-20T07:04:51;94776.88;;;5.97;84.76
18201;BME280;9226;47.858;9.594;2023-04-20T07:07:16;94777.84;;;5.96;84.01
18201;BME280;9226;47.858;9.594;2023-04-20T07:09:41;94783.84;;;5.98;83.11
18201;BME280;9226;47.858;9.594;2023-04-20T07:12:07;94786.06;;;5.92;83.67
18201;BME280;9226;47.858;9.594;2023-04-20T07:14:32;94779.22;;;5.89;83.75
18201;BME280;9226;47.858;9.594;2023-04-20T07:16:58;94771.66;;;5.85;83.77
18201;BME280;9226;47.858;9.594;2023-04-20T07:19:23;94767.13;;;5.87;84.57
18201;BME280;9226;47.858;9.594;2023-04-20T07:21:48;94758.59;;;5.83;84.68
18201;BME280;9226;47.858;9.594;2023-04-20T07:24:14;94746.63;;;5.79;86.12
18201;BME280;9226;47.858;9.594;2023-04-20T07:26:39;94763.88;;;5.83;85.46
18201;BME280;9226;47.858;9.594;2023-04-20T07:29:05;94761.09;;;5.97;85.80
18201;BME280;9226;47.858;9.594;2023-04-20T07:31:30;94769.53;;;6.14;84.67
18201;BME280;9226;47.858;9.594;2023-04-20T07:33:55;94775.16;;;6.09;84.04
18201;BME280;9226;47.858;9.594;2023-04-20T07:36:21;94772.56;;;6.21;82.28
18201;BME280;9226;47.858;9.594;2023-04-20T07:38:47;94780.13;;;6.37;82.79
18201;BME280;9226;47.858;9.594;2023-04-20T07:41:13;94784.09;;;6.31;82.03
18201;BME280;9226;47.858;9.594;2023-04-20T07:43:39;94769.38;;;6.40;82.24
18201;BME280;9226;47.858;9.594;2023-04-20T07:46:04;94763.41;;;5.89;80.67
18201;BME280;9226;47.858;9.594;2023-04-20T07:48:30;94763.19;;;5.92;82.62
18201;BME280;9226;47.858;9.594;2023-04-20T07:50:56;94767.22;;;5.98;82.09
18201;BME280;9226;47.858;9.594;2023-04-20T07:53:21;94755.72;;;5.99;81.43
18201;BME280;9226;47.858;9.594;2023-04-20T07:55:47;94768.47;;;5.92;82.74
18201;BME280;9226;47.858;9.594;2023-04-20T07:58:13;94758.00;;;6.04;82.28
18201;BME280;9226;47.858;9.594;2023-04-20T08:00:38;94744.59;;;6.07;83.29
18201;BME280;9226;47.858;9.594;2023-04-20T08:03:04;94752.31;;;6.21;82.22
18201;BME280;9226;47.858;9.594;2023-04-20T08:05:29;94755.47;;;6.26;81.80
18201;BME280;9226;47.858;9.594;2023-04-20T08:07:55;94754.69;;;6.13;81.60
18201;BME280;9226;47.858;9.594;2023-04-20T08:10:20;94758.25;;;6.12;81.20
18201;BME280;9226;47.858;9.594;2023-04-20T08:12:45;94749.59;;;6.34;81.35
18201;BME280;9226;47.858;9.594;2023-04-20T08:15:11;94748.78;;;6.56;82.88
18201;BME280;9226;47.858;9.594;2023-04-20T08:17:38;94750.13;;;6.73;81.65
18201;BME280;9226;47.858;9.594;2023-04-20T08:20:04;94737.81;;;6.85;82.75
18201;BME280;9226;47.858;9.594;2023-04-20T08:22:30;94736.97;;;6.96;81.77
18201;BME280;9226;47.858;9.594;2023-04-20T08:24:56;94735.41;;;7.16;80.40
18201;BME280;9226;47.858;9.594;2023-04-20T08:27:22;94734.56;;;7.27;80.71
18201;BME280;9226;47.858;9.594;2023-04-20T08:29:47;94731.59;;;7.09;80.24
18201;BME280;9226;47.858;9.594;2023-04-20T08:32:12;94721.03;;;7.09;79.64
18201;BME280;9226;47.858;9.594;2023-04-20T08:34:38;94711.28;;;7.20;79.58
18201;BME280;9226;47.858;9.594;2023-04-20T08:37:04;94719.53;;;7.38;79.74
18201;BME280;9226;47.858;9.594;2023-04-20T08:39:30;94715.75;;;7.20;78.80
18201;BME280;9226;47.858;9.594;2023-04-20T08:41:56;94728.41;;;7.49;78.71
18201;BME280;9226;47.858;9.594;2023-04-20T08:44:23;94718.44;;;7.52;77.71
18201;BME280;9226;47.858;9.594;2023-04-20T08:46:49;94725.16;;;7.56;77.02
18201;BME280;9226;47.858;9.594;2023-04-20T08:49:15;94719.56;;;7.71;77.55
18201;BME280;9226;47.858;9.594;2023-04-20T08:51:45;94714.59;;;7.89;78.16
18201;BME280;9226;47.858;9.594;2023-04-20T08:54:11;94722.19;;;8.03;77.37
18201;BME280;9226;47.858;9.594;2023-04-20T08:56:42;94726.72;;;8.12;75.47
18201;BME280;9226;47.858;9.594;2023-04-20T08:59:07;94730.13;;;8.03;73.75
18201;BME280;9226;47.858;9.594;2023-04-20T09:01:41;94732.03;;;7.80;74.11
18201;BME280;9226;47.858;9.594;2023-04-20T09:04:18;94729.28;;;7.82;75.23
18201;BME280;9226;47.858;9.594;2023-04-20T09:06:48;94731.50;;;7.54;74.68
18201;BME280;9226;47.858;9.594;2023-04-20T09:09:17;94739.88;;;7.59;75.07
18201;BME280;9226;47.858;9.594;2023-04-20T09:11:43;94731.25;;;7.57;75.41
18201;BME280;9226;47.858;9.594;2023-04-20T09:14:14;94722.44;;;7.35;75.42
18201;BME280;9226;47.858;9.594;2023-04-20T09:16:49;94727.00;;;7.22;75.19
18201;BME280;9226;47.858;9.594;2023-04-20T09:19:23;94739.72;;;7.28;76.35
18201;BME280;9226;47.858;9.594;2023-04-20T09:21:50;94733.63;;;6.94;75.70
18201;BME280;9226;47.858;9.594;2023-04-20T09:24:16;94724.63;;;7.07;76.97
18201;BME280;9226;47.858;9.594;2023-04-20T09:26:41;94725.22;;;7.00;77.96
18201;BME280;9226;47.858;9.594;2023-04-20T09:29:20;94730.75;;;6.85;77.29
18201;BME280;9226;47.858;9.594;2023-04-20T09:31:47;94738.66;;;6.85;76.92
18201;BME280;9226;47.858;9.594;2023-04-20T09:34:12;94732.78;;;6.70;77.06
18201;BME280;9226;47.858;9.594;2023-04-20T09:36:46;94732.16;;;6.67;76.74
18201;BME280;9226;47.858;9.594;2023-04-20T09:39:14;94735.91;;;6.76;77.18
18201;BME280;9226;47.858;9.594;2023-04-20T09:41:41;94729.06;;;6.84;77.39
18201;BME280;9226;47.858;9.594;2023-04-20T09:44:08;94732.28;;;6.77;76.22
18201;BME280;9226;47.858;9.594;2023-04-20T09:46:36;94729.28;;;6.81;77.18
18201;BME280;9226;47.858;9.594;2023-04-20T09:49:04;94729.06;;;6.84;77.12
18201;BME280;9226;47.858;9.594;2023-04-20T09:51:31;94725.69;;;7.05;76.36
18201;BME280;9226;47.858;9.594;2023-04-20T09:53:58;94723.66;;;7.20;77.37
18201;BME280;9226;47.858;9.594;2023-04-20T09:56:25;94712.13;;;7.32;77.58
18201;BME280;9226;47.858;9.594;2023-04-20T09:58:52;94736.09;;;7.18;77.28
18201;BME280;9226;47.858;9.594;2023-04-20T10:01:19;94727.06;;;7.43;76.56
18201;BME280;9226;47.858;9.594;2023-04-20T10:03:44;94723.50;;;7.44;74.93
18201;BME280;9226;47.858;9.594;2023-04-20T10:06:23;94730.75;;;7.63;74.67
18201;BME280;9226;47.858;9.594;2023-04-20T10:08:49;94717.22;;;7.89;73.53
18201;BME280;9226;47.858;9.594;2023-04-20T10:13:57;94719.44;;;7.72;72.85
18201;BME280;9226;47.858;9.594;2023-04-20T10:16:23;94717.25;;;7.45;71.16
18201;BME280;9226;47.858;9.594;2023-04-20T10:19:00;94716.41;;;7.45;73.37
18201;BME280;9226;47.858;9.594;2023-04-20T10:21:30;94707.44;;;7.36;72.53
18201;BME280;9226;47.858;9.594;2023-04-20T10:23:59;94699.66;;;7.34;71.79
18201;BME280;9226;47.858;9.594;2023-04-20T10:26:37;94696.25;;;7.43;72.41
18201;BME280;9226;47.858;9.594;2023-04-20T10:29:03;94692.59;;;7.67;72.43
18201;BME280;9226;47.858;9.594;2023-04-20T10:31:37;94688.16;;;7.89;71.52
18201;BME280;9226;47.858;9.594;2023-04-20T10:34:04;94691.41;;;7.92;70.71
18201;BME280;9226;47.858;9.594;2023-04-20T10:36:31;94691.38;;;7.71;70.01
18201;BME280;9226;47.858;9.594;2023-04-20T10:38:59;94687.84;;;7.82;71.18
18201;BME280;9226;47.858;9.594;2023-04-20T10:41:26;94685.84;;;7.74;71.56
18201;BME280;9226;47.858;9.594;2023-04-20T10:43:52;94671.03;;;7.83;70.51
18201;BME280;9226;47.858;9.594;2023-04-20T10:46:19;94669.59;;;8.11;71.25
18201;BME280;9226;47.858;9.594;2023-04-20T10:51:14;94666.16;;;8.00;69.67
18201;BME280;9226;47.858;9.594;2023-04-20T10:53:40;94657.97;;;8.24;69.81
18201;BME280;9226;47.858;9.594;2023-04-20T10:56:05;94659.72;;;8.13;69.17
18201;BME280;9226;47.858;9.594;2023-04-20T10:58:31;94661.38;;;8.36;70.20
18201;BME280;9226;47.858;9.594;2023-04-20T11:00:58;94663.88;;;8.58;70.46
18201;BME280;9226;47.858;9.594;2023-04-20T11:03:24;94665.94;;;8.45;69.12
18201;BME280;9226;47.858;9.594;2023-04-20T11:05:51;94658.78;;;8.66;68.92
18201;BME280;9226;47.858;9.594;2023-04-20T11:08:16;94672.81;;;8.57;68.27
18201;BME280;9226;47.858;9.594;2023-04-20T11:10:41;94658.38;;;8.71;68.93
18201;BME280;9226;47.858;9.594;2023-04-20T11:13:18;94668.97;;;8.71;68.54
18201;BME280;9226;47.858;9.594;2023-04-20T11:15:44;94652.00;;;8.74;68.52
18201;BME280;9226;47.858;9.594;2023-04-20T11:18:11;94649.50;;;8.30;67.83
18201;BME280;9226;47.858;9.594;2023-04-20T11:20:37;94652.22;;;8.61;68.94
18201;BME280;9226;47.858;9.594;2023-04-20T11:23:03;94651.06;;;8.54;68.62
18201;BME280;9226;47.858;9.594;2023-04-20T11:25:30;94643.03;;;8.65;68.81
18201;BME280;9226;47.858;9.594;2023-04-20T11:28:08;94638.84;;;8.53;68.73
18201;BME280;9226;47.858;9.594;2023-04-20T11:30:38;94636.78;;;8.35;68.87
18201;BME280;9226;47.858;9.594;2023-04-20T11:33:04;94637.44;;;8.58;69.59
18201;BME280;9226;47.858;9.594;2023-04-20T11:35:35;94641.72;;;8.28;69.29
18201;BME280;9226;47.858;9.594;2023-04-20T11:38:01;94634.81;;;8.37;69.31
18201;BME280;9226;47.858;9.594;2023-04-20T11:40:27;94630.09;;;8.41;69.41
18201;BME280;9226;47.858;9.594;2023-04-20T11:42:52;94624.00;;;8.40;69.89
18201;BME280;9226;47.858;9.594;2023-04-20T11:45:17;94628.78;;;8.46;69.80
18201;BME280;9226;47.858;9.594;2023-04-20T11:47:43;94628.72;;;8.37;69.32
18201;BME280;9226;47.858;9.594;2023-04-20T11:50:10;94631.03;;;8.30;69.54
18201;BME280;9226;47.858;9.594;2023-04-20T11:52:36;94630.13;;;8.20;69.59
18201;BME280;9226;47.858;9.594;2023-04-20T11:55:01;94631.03;;;8.30;69.46
18201;BME280;9226;47.858;9.594;2023-04-20T11:57:26;94634.56;;;8.40;69.34
18201;BME280;9226;47.858;9.594;2023-04-20T11:59:52;94628.72;;;8.37;69.70
18201;BME280;9226;47.858;9.594;2023-04-20T12:02:17;94627.81;;;8.26;69.66
18201;BME280;9226;47.858;9.594;2023-04-20T12:04:43;94627.75;;;8.17;70.90
18201;BME280;9226;47.858;9.594;2023-04-20T12:07:08;94626.00;;;8.27;70.96
18201;BME280;9226;47.858;9.594;2023-04-20T12:09:33;94626.41;;;8.43;71.15
18201;BME280;9226;47.858;9.594;2023-04-20T12:12:05;94625.88;;;8.49;69.11
18201;BME280;9226;47.858;9.594;2023-04-20T12:14:32;94631.06;;;8.61;69.69
18201;BME280;9226;47.858;9.594;2023-04-20T12:16:58;94635.31;;;8.73;69.80
18201;BME280;9226;47.858;9.594;2023-04-20T12:19:24;94632.66;;;8.73;69.13
18201;BME280;9226;47.858;9.594;2023-04-20T12:21:49;94631.09;;;8.71;69.67
18201;BME280;9226;47.858;9.594;2023-04-20T12:24:15;94632.16;;;8.58;69.99
18201;BME280;9226;47.858;9.594;2023-04-20T12:26:40;94636.69;;;8.77;69.58
18201;BME280;9226;47.858;9.594;2023-04-20T12:29:05;94636.88;;;8.55;70.00
18201;BME280;9226;47.858;9.594;2023-04-20T12:31:31;94648.78;;;8.70;69.16
18201;BME280;9226;47.858;9.594;2023-04-20T12:33:57;94642.19;;;8.55;69.22
18201;BME280;9226;47.858;9.594;2023-04-20T12:36:22;94647.47;;;8.55;68.64
18201;BME280;9226;47.858;9.594;2023-04-20T12:38:50;94642.78;;;8.68;68.74
18201;BME280;9226;47.858;9.594;2023-04-20T12:41:16;94652.56;;;8.46;69.12
18201;BME280;9226;47.858;9.594;2023-04-20T12:43:41;94646.31;;;8.47;69.40
18201;BME280;9226;47.858;9.594;2023-04-20T12:46:07;94654.53;;;8.33;70.80
18201;BME280;9226;47.858;9.594;2023-04-20T12:48:32;94650.81;;;8.36;70.22
18201;BME280;9226;47.858;9.594;2023-04-20T12:50:57;94655.53;;;8.32;69.80
18201;BME280;9226;47.858;9.594;2023-04-20T12:53:23;94652.88;;;8.32;70.89
18201;BME280;9226;47.858;9.594;2023-04-20T12:55:48;94648.06;;;8.16;71.79
18201;BME280;9226;47.858;9.594;2023-04-20T12:58:14;94646.59;;;8.02;71.60
18201;BME280;9226;47.858;9.594;2023-04-20T13:00:40;94647.84;;;8.08;72.08
18201;BME280;9226;47.858;9.594;2023-04-20T13:03:08;94654.38;;;8.04;71.99
18201;BME280;9226;47.858;9.594;2023-04-20T13:05:33;94642.44;;;8.09;72.36
18201;BME280;9226;47.858;9.594;2023-04-20T13:07:58;94643.25;;;8.00;73.95
18201;BME280;9226;47.858;9.594;2023-04-20T13:10:24;94648.31;;;7.92;74.39
18201;BME280;9226;47.858;9.594;2023-04-20T13:12:49;94651.66;;;7.94;73.95
18201;BME280;9226;47.858;9.594;2023-04-20T13:15:18;94649.50;;;7.67;75.18
18201;BME280;9226;47.858;9.594;2023-04-20T13:17:44;94640.00;;;7.75;75.75
18201;BME280;9226;47.858;9.594;2023-04-20T13:20:10;94639.66;;;7.69;76.67
18201;BME280;9226;47.858;9.594;2023-04-20T13:22:37;94643.38;;;7.66;77.11